Time;durP1;ratioP1;P1;durP2;ratioP2;P2;SDS_P1;SDS_P2;PMS_P1;PMS_P2;Temp;Humidity;BMP_temperature;BMP_pressure;BME280_temperature;BME280_humidity;BME280_pressure;Samples;Min_cycle;Max_cycle;Signal;HPM_P1;HPM_P2
2021/12/08 00:00:28;;;;;;;9.47;5.37;;;1.50;99.90;;;;;;4157702;28;21208;-60
2021/12/08 00:02:29;;;;;;;10.87;5.63;;;1.50;99.90;;;;;;4156791;28;20302;-60
2021/12/08 00:04:30;;;;;;;9.70;4.87;;;1.50;99.90;;;;;;4157729;28;20405;-60
2021/12/08 00:06:31;;;;;;;9.50;5.30;;;1.50;99.90;;;;;;4157511;28;20254;-60
2021/12/08 00:08:33;;;;;;;8.40;5.10;;;1.50;99.90;;;;;;4157054;28;20325;-60
2021/12/08 00:14:57;;;;;;;6.27;4.57;;;1.50;99.90;;;;;;4157974;28;20270;-59
2021/12/08 00:16:58;;;;;;;8.90;4.73;;;1.50;99.90;;;;;;4156946;28;20317;-61
2021/12/08 00:19:00;;;;;;;7.63;4.93;;;1.60;99.90;;;;;;4157775;28;20267;-60
2021/12/08 00:21:04;;;;;;;10.50;6.27;;;1.50;99.90;;;;;;4156782;28;20278;-59
2021/12/08 00:23:07;;;;;;;9.63;5.33;;;1.50;99.90;;;;;;4157980;28;20349;-60
2021/12/08 00:25:08;;;;;;;8.57;5.33;;;1.50;99.90;;;;;;4156962;28;20332;-61
2021/12/08 00:27:09;;;;;;;10.87;5.77;;;1.50;99.90;;;;;;4158567;28;20304;-59
2021/12/08 00:29:11;;;;;;;10.50;6.23;;;1.50;99.90;;;;;;4156813;28;20301;-59
2021/12/08 00:31:12;;;;;;;9.13;5.07;;;1.50;99.90;;;;;;4158205;28;20316;-61
2021/12/08 00:33:13;;;;;;;6.67;4.90;;;1.50;99.90;;;;;;4156648;28;20280;-60
2021/12/08 00:35:15;;;;;;;9.50;5.47;;;1.50;99.90;;;;;;4157901;28;20325;-60
2021/12/08 00:37:16;;;;;;;11.37;5.63;;;1.50;99.90;;;;;;4156348;28;20317;-60
2021/12/08 00:39:17;;;;;;;9.10;5.13;;;1.50;99.90;;;;;;4157769;28;20337;-60
2021/12/08 00:41:19;;;;;;;10.60;5.67;;;1.50;99.90;;;;;;4157481;28;20271;-60
2021/12/08 00:43:21;;;;;;;11.53;5.57;;;1.60;99.90;;;;;;4157044;28;20632;-60
2021/12/08 00:45:24;;;;;;;8.57;5.33;;;1.60;99.90;;;;;;4157102;28;20329;-63
2021/12/08 00:47:26;;;;;;;11.00;5.97;;;1.50;99.90;;;;;;4157005;28;20262;-60
2021/12/08 00:49:27;;;;;;;10.30;5.37;;;1.60;99.90;;;;;;4155267;28;20712;-60
2021/12/08 00:51:28;;;;;;;10.83;6.00;;;1.60;99.90;;;;;;4155930;28;20279;-60
2021/12/08 00:53:30;;;;;;;9.10;5.10;;;1.60;99.90;;;;;;4156423;28;20345;-60
2021/12/08 00:55:31;;;;;;;10.00;5.37;;;1.60;99.90;;;;;;4156019;28;20305;-60
2021/12/08 00:57:32;;;;;;;12.67;7.07;;;1.60;99.90;;;;;;4155735;28;20267;-61
2021/12/08 00:59:33;;;;;;;12.40;5.43;;;1.60;99.90;;;;;;4156078;28;20282;-59
2021/12/08 01:01:35;;;;;;;9.13;5.20;;;1.60;99.90;;;;;;4156773;28;20259;-60
2021/12/08 01:03:36;;;;;;;11.47;5.53;;;1.60;99.90;;;;;;4155240;28;20274;-59
2021/12/08 01:05:43;;;;;;;9.67;5.70;;;1.50;99.90;;;;;;4157042;28;20263;-60
2021/12/08 01:07:45;;;;;;;8.90;5.40;;;1.50;99.90;;;;;;4155337;28;20317;-60
2021/12/08 01:09:47;;;;;;;12.10;7.10;;;1.50;99.90;;;;;;4159654;28;20755;-61
2021/12/08 01:11:48;;;;;;;9.23;5.33;;;1.50;99.90;;;;;;4159160;28;20317;-61
2021/12/08 01:13:50;;;;;;;11.10;6.23;;;1.50;99.90;;;;;;4159156;28;20681;-60
2021/12/08 01:15:54;;;;;;;11.77;6.47;;;1.50;99.90;;;;;;4159015;28;20266;-61
2021/12/08 01:17:56;;;;;;;14.43;5.90;;;1.40;99.90;;;;;;4159226;28;20350;-59
2021/12/08 01:19:57;;;;;;;14.57;7.77;;;1.40;99.90;;;;;;4159077;28;20832;-60
2021/12/08 01:21:58;;;;;;;13.70;6.83;;;1.40;99.90;;;;;;4158198;28;20298;-61
2021/12/08 01:24:00;;;;;;;14.03;7.33;;;1.40;99.90;;;;;;4159066;28;20267;-61
2021/12/08 01:26:04;;;;;;;14.47;7.47;;;1.30;99.90;;;;;;4158245;28;20650;-61
2021/12/08 01:28:05;;;;;;;12.03;6.47;;;1.30;99.90;;;;;;4159910;28;20317;-61
2021/12/08 01:30:08;;;;;;;15.03;7.17;;;1.30;99.90;;;;;;4158196;28;20262;-60
2021/12/08 01:32:09;;;;;;;13.70;6.60;;;1.30;99.90;;;;;;4159758;28;20337;-60
2021/12/08 01:34:12;;;;;;;10.57;6.30;;;1.30;99.90;;;;;;4158574;28;20281;-60
2021/12/08 01:36:13;;;;;;;12.63;6.17;;;1.30;99.90;;;;;;4159617;28;20262;-60
2021/12/08 01:38:14;;;;;;;12.43;6.80;;;1.30;99.90;;;;;;4158169;28;20333;-60
2021/12/08 01:40:17;;;;;;;13.43;7.83;;;1.40;99.90;;;;;;4159391;28;20275;-61
2021/12/08 01:42:27;;;;;;;11.23;6.33;;;1.40;99.90;;;;;;4158956;28;21339;-61
2021/12/08 01:46:50;;;;;;;10.17;5.50;;;1.40;99.90;;;;;;4158280;28;20037;-61
2021/12/08 01:48:52;;;;;;;8.67;5.13;;;1.40;99.90;;;;;;4084379;28;2162369;-61
2021/12/08 01:50:58;;;;;;;9.67;4.87;;;1.40;99.90;;;;;;4159069;28;20441;-60
2021/12/08 01:53:00;;;;;;;11.20;5.77;;;1.40;99.90;;;;;;4160177;28;20321;-62
2021/12/08 01:55:01;;;;;;;8.13;4.70;;;1.40;99.90;;;;;;4159503;28;20262;-60
2021/12/08 01:57:02;;;;;;;14.07;7.03;;;1.40;99.90;;;;;;4159701;28;20608;-61
2021/12/08 01:59:05;;;;;;;11.93;6.10;;;1.40;99.90;;;;;;4159467;28;20254;-61
2021/12/08 02:01:14;;;;;;;14.93;7.73;;;1.40;99.90;;;;;;4159177;28;20263;-60
2021/12/08 02:03:17;;;;;;;8.20;5.27;;;1.40;99.90;;;;;;4159235;28;20694;-60
2021/12/08 02:05:18;;;;;;;9.17;4.77;;;1.40;99.90;;;;;;4159321;28;20275;-60
2021/12/08 02:07:19;;;;;;;10.87;5.97;;;1.40;99.90;;;;;;4159645;28;20276;-60
2021/12/08 02:09:21;;;;;;;8.83;4.83;;;1.40;99.90;;;;;;4158523;28;20317;-62
2021/12/08 02:11:23;;;;;;;8.80;5.67;;;1.40;99.90;;;;;;4160766;28;20262;-61
2021/12/08 02:13:24;;;;;;;10.57;5.63;;;1.40;99.90;;;;;;4158774;28;20271;-61
2021/12/08 02:15:25;;;;;;;13.43;6.83;;;1.40;99.90;;;;;;4160375;28;20783;-60
2021/12/08 02:17:26;;;;;;;13.10;6.33;;;1.40;99.90;;;;;;4158869;28;20263;-60
2021/12/08 02:19:28;;;;;;;11.70;6.27;;;1.40;99.90;;;;;;4159487;28;20729;-60
2021/12/08 02:21:32;;;;;;;12.00;6.90;;;1.40;99.90;;;;;;4158591;28;20267;-60
2021/12/08 02:23:33;;;;;;;11.67;6.50;;;1.40;99.90;;;;;;4160219;28;20349;-59
2021/12/08 02:25:35;;;;;;;9.63;5.43;;;1.40;99.90;;;;;;4158281;28;20282;-60
2021/12/08 02:27:37;;;;;;;8.90;5.87;;;1.40;99.90;;;;;;4159631;28;20778;-61
2021/12/08 02:29:49;;;;;;;14.07;7.27;;;1.50;99.90;;;;;;4157808;28;20242;-59
2021/12/08 02:47:55;;;;;;;11.17;6.50;;;1.60;99.90;;;;;;4158189;28;20337;-61
2021/12/08 02:49:58;;;;;;;11.30;5.97;;;1.60;99.90;;;;;;4159157;28;20373;-60
2021/12/08 02:52:01;;;;;;;14.03;6.47;;;1.50;99.90;;;;;;4157981;28;20332;-61
2021/12/08 02:54:03;;;;;;;10.07;5.63;;;1.60;99.90;;;;;;4159425;28;20271;-59
2021/12/08 02:56:05;;;;;;;11.13;6.13;;;1.60;99.90;;;;;;4158410;28;20324;-62
2021/12/08 02:58:06;;;;;;;16.77;8.30;;;1.60;99.90;;;;;;4159567;28;20773;-61
2021/12/08 03:00:10;;;;;;;39.20;21.27;;;1.60;99.90;;;;;;4158149;28;20297;-60
2021/12/08 03:02:13;;;;;;;38.60;21.23;;;1.60;99.90;;;;;;4158970;28;20733;-64
2021/12/08 03:04:14;;;;;;;33.47;17.30;;;1.70;99.90;;;;;;4158119;28;20329;-60
2021/12/08 03:06:16;;;;;;;22.80;12.70;;;1.70;99.90;;;;;;4158632;28;20329;-60
2021/12/08 03:08:17;;;;;;;16.27;10.33;;;1.70;99.90;;;;;;4158115;28;20906;-60
2021/12/08 03:10:21;;;;;;;15.03;8.83;;;1.70;99.90;;;;;;4158319;28;20274;-60
2021/12/08 03:12:30;;;;;;;14.70;7.77;;;1.70;99.90;;;;;;4158284;28;20324;-60
2021/12/08 03:14:32;;;;;;;13.07;6.90;;;1.70;99.90;;;;;;4158480;28;20336;-61
2021/12/08 03:16:35;;;;;;;12.27;6.43;;;1.70;99.90;;;;;;4158167;28;20259;-61
2021/12/08 03:18:39;;;;;;;11.90;6.57;;;1.60;99.90;;;;;;4157342;28;21125;-60
2021/12/08 03:20:41;;;;;;;13.40;7.10;;;1.60;99.90;;;;;;4158401;28;20352;-61
2021/12/08 03:22:46;;;;;;;11.70;7.10;;;1.60;99.90;;;;;;4157292;28;20713;-60
2021/12/08 03:24:50;;;;;;;14.00;7.67;;;1.60;99.90;;;;;;4159021;28;20333;-58
2021/12/08 03:29:17;;;;;;;11.77;6.60;;;1.60;99.90;;;;;;4158723;28;20829;-61
2021/12/08 03:31:19;;;;;;;12.30;7.40;;;1.60;99.90;;;;;;4156788;28;20778;-60
2021/12/08 03:33:21;;;;;;;13.00;7.17;;;1.60;99.90;;;;;;4158546;28;20263;-59
2021/12/08 03:35:22;;;;;;;13.97;8.00;;;1.60;99.90;;;;;;4157536;28;21336;-62
2021/12/08 03:37:47;;;;;;;14.77;7.50;;;1.60;99.90;;;;;;4158301;28;20795;-60
2021/12/08 03:39:50;;;;;;;11.57;6.77;;;1.60;99.90;;;;;;4157325;28;20278;-60
2021/12/08 03:41:51;;;;;;;12.90;7.50;;;1.50;99.90;;;;;;4159009;28;20275;-60
2021/12/08 03:43:52;;;;;;;13.70;7.43;;;1.50;99.90;;;;;;4157135;28;20299;-60
2021/12/08 03:45:55;;;;;;;12.37;7.00;;;1.60;99.90;;;;;;4158594;28;20289;-61
2021/12/08 03:48:01;;;;;;;13.13;6.97;;;1.50;99.90;;;;;;4157388;28;20263;-59
2021/12/08 03:50:07;;;;;;;10.53;6.67;;;1.50;99.90;;;;;;4158151;28;20332;-60
2021/12/08 03:52:09;;;;;;;11.70;6.93;;;1.50;99.90;;;;;;4157048;28;20336;-60
2021/12/08 03:54:11;;;;;;;12.00;6.90;;;1.50;99.90;;;;;;4158080;28;20270;-60
2021/12/08 03:56:12;;;;;;;14.10;7.00;;;1.50;99.90;;;;;;4156802;28;20270;-61
2021/12/08 03:58:15;;;;;;;28.20;13.03;;;1.50;99.90;;;;;;4158034;28;20372;-60
2021/12/08 04:00:21;;;;;;;46.10;19.07;;;1.50;99.90;;;;;;4157475;28;20294;-60
2021/12/08 04:02:22;;;;;;;52.30;21.17;;;1.50;99.90;;;;;;4157455;28;20254;-60
2021/12/08 04:04:28;;;;;;;45.13;20.00;;;1.50;99.90;;;;;;4157088;28;20678;-60
2021/12/08 04:06:34;;;;;;;24.40;12.17;;;1.40;99.90;;;;;;4157154;28;20336;-61
2021/12/08 04:08:45;;;;;;;16.47;8.87;;;1.40;99.90;;;;;;4157505;28;20321;-61
2021/12/08 04:10:51;;;;;;;16.70;9.43;;;1.40;99.90;;;;;;4157325;28;20763;-61
2021/12/08 04:12:54;;;;;;;28.23;13.63;;;1.40;99.90;;;;;;4158051;28;20262;-60
2021/12/08 04:15:03;;;;;;;57.63;26.53;;;1.40;99.90;;;;;;4156976;28;20283;-61
2021/12/08 04:17:13;;;;;;;65.93;29.27;;;1.50;99.90;;;;;;4157714;28;20275;-64
2021/12/08 04:19:16;;;;;;;80.03;34.17;;;1.50;99.90;;;;;;4157142;28;20782;-60
2021/12/08 04:21:18;;;;;;;51.50;23.23;;;1.60;99.90;;;;;;4157700;28;20329;-60
2021/12/08 04:23:22;;;;;;;99.63;43.37;;;1.60;99.90;;;;;;4156386;28;20686;-59
2021/12/08 04:25:29;;;;;;;100.60;40.97;;;1.60;99.90;;;;;;4158091;28;20275;-61
2021/12/08 04:27:33;;;;;;;63.73;28.63;;;1.60;99.90;;;;;;4156237;28;20279;-61
2021/12/08 04:29:37;;;;;;;45.87;21.57;;;1.60;99.90;;;;;;4157644;28;20263;-63
2021/12/08 04:31:41;;;;;;;24.80;13.03;;;1.70;99.90;;;;;;4156714;28;20270;-61
2021/12/08 04:33:43;;;;;;;29.40;14.63;;;1.70;99.90;;;;;;4157447;28;20270;-60
2021/12/08 04:35:47;;;;;;;20.50;11.80;;;1.70;99.90;;;;;;4156344;28;20270;-61
2021/12/08 04:37:59;;;;;;;23.97;12.83;;;1.70;99.90;;;;;;4157699;28;20274;-61
2021/12/08 04:40:23;;;;;;;28.83;15.67;;;1.70;99.90;;;;;;4156589;28;20279;-60
2021/12/08 04:42:45;;;;;;;16.67;8.80;;;1.70;99.90;;;;;;4158167;28;20659;-60
2021/12/08 04:44:53;;;;;;;11.33;6.70;;;1.70;99.90;;;;;;4156423;28;20267;-60
2021/12/08 04:53:34;;;;;;;12.63;7.37;;;1.70;99.90;;;;;;4156103;28;20287;-61
2021/12/08 05:05:16;;;;;;;9.93;6.73;;;1.70;99.90;;;;;;4153562;28;21094;-59
2021/12/08 05:09:36;;;;;;;13.83;7.70;;;1.70;99.90;;;;;;4144871;28;20084;-62
2021/12/08 05:11:43;;;;;;;10.13;6.83;;;1.70;99.90;;;;;;4156563;28;20600;-68
2021/12/08 05:13:47;;;;;;;12.60;8.17;;;1.70;99.90;;;;;;4156118;28;20748;-63
2021/12/08 05:15:53;;;;;;;13.57;7.93;;;1.70;99.90;;;;;;4154506;28;20271;-61
2021/12/08 05:18:12;;;;;;;16.70;10.63;;;1.80;99.90;;;;;;4155574;28;20301;-62
2021/12/08 05:20:30;;;;;;;18.30;10.43;;;1.80;99.90;;;;;;4155168;28;20336;-62
2021/12/08 05:22:37;;;;;;;13.50;9.20;;;1.80;99.90;;;;;;4155197;28;20286;-68
2021/12/08 05:24:43;;;;;;;15.67;9.37;;;1.80;99.90;;;;;;4156089;28;20325;-63
2021/12/08 05:26:54;;;;;;;14.17;8.73;;;1.80;99.90;;;;;;4154374;28;20809;-61
2021/12/08 05:28:59;;;;;;;17.27;10.05;;;1.80;99.90;;;;;;4151985;28;20278;-62
2021/12/08 05:31:05;;;;;;;14.20;8.70;;;1.80;99.90;;;;;;4151549;28;20051;-61
2021/12/08 05:33:09;;;;;;;18.30;11.20;;;1.90;99.90;;;;;;4148574;28;20341;-61
2021/12/08 05:35:13;;;;;;;22.27;11.17;;;1.90;99.90;;;;;;4154810;28;20279;-66
2021/12/08 05:37:16;;;;;;;15.93;9.67;;;1.90;99.90;;;;;;4162007;28;20365;-68
2021/12/08 05:39:20;;;;;;;14.23;8.23;;;1.90;99.90;;;;;;4163157;28;20317;-67
2021/12/08 05:41:29;;;;;;;15.97;8.70;;;1.90;99.90;;;;;;4155664;28;20286;-67
2021/12/08 05:43:30;;;;;;;13.87;8.90;;;1.90;99.90;;;;;;4157035;28;20295;-61
2021/12/08 05:45:32;;;;;;;12.10;7.90;;;1.80;99.90;;;;;;4155102;28;20801;-70
2021/12/08 05:47:33;;;;;;;12.27;6.90;;;1.80;99.90;;;;;;4156973;28;20328;-68
2021/12/08 05:49:34;;;;;;;16.47;9.03;;;1.80;99.90;;;;;;4155575;28;20747;-62
2021/12/08 05:51:36;;;;;;;15.53;9.07;;;1.80;99.90;;;;;;4156477;28;20786;-61
2021/12/08 05:53:42;;;;;;;12.40;7.57;;;1.80;99.90;;;;;;4156486;28;20267;-61
2021/12/08 05:55:44;;;;;;;18.37;10.37;;;1.70;99.90;;;;;;4159997;28;20329;-61
2021/12/08 05:57:46;;;;;;;15.87;8.47;;;1.70;99.90;;;;;;4158642;28;20755;-63
2021/12/08 05:59:49;;;;;;;13.10;7.40;;;1.60;99.90;;;;;;4151451;28;20280;-67
2021/12/08 06:02:11;;;;;;;13.00;7.53;;;1.60;99.90;;;;;;4141852;28;20333;-67
2021/12/08 06:04:12;;;;;;;12.50;7.23;;;1.60;99.90;;;;;;4142727;28;20364;-60
2021/12/08 06:06:14;;;;;;;13.00;7.17;;;1.60;99.90;;;;;;4155383;28;20818;-66
2021/12/08 06:08:16;;;;;;;14.60;7.70;;;1.60;99.90;;;;;;4158545;28;20691;-60
2021/12/08 06:10:27;;;;;;;15.53;8.53;;;1.60;99.90;;;;;;4151915;28;20727;-60
2021/12/08 06:12:29;;;;;;;17.30;9.47;;;1.60;99.90;;;;;;4158019;28;20274;-62
2021/12/08 06:14:32;;;;;;;19.40;9.97;;;1.50;99.90;;;;;;4169824;28;20296;-63
2021/12/08 06:16:36;;;;;;;17.90;10.03;;;1.50;99.90;;;;;;4165449;28;20324;-70
2021/12/08 06:18:39;;;;;;;18.33;9.97;;;1.60;99.90;;;;;;4162894;28;20270;-69
2021/12/08 06:20:42;;;;;;;23.43;12.57;;;1.60;99.90;;;;;;4150585;28;20274;-71
2021/12/08 06:22:45;;;;;;;20.43;11.30;;;1.60;99.90;;;;;;4168867;28;20677;-68
2021/12/08 06:24:47;;;;;;;17.80;9.40;;;1.60;99.90;;;;;;4171933;28;20855;-72
2021/12/08 06:26:49;;;;;;;16.83;9.60;;;1.60;99.90;;;;;;4158593;28;20313;-61
2021/12/08 06:28:52;;;;;;;20.23;10.60;;;1.60;99.90;;;;;;4157062;28;20266;-58
2021/12/08 06:30:53;;;;;;;19.23;9.43;;;1.60;99.90;;;;;;4159440;28;20275;-71
2021/12/08 06:32:55;;;;;;;20.67;10.77;;;1.70;99.90;;;;;;4157424;28;20754;-62
2021/12/08 06:34:58;;;;;;;23.30;12.53;;;1.60;99.90;;;;;;4158629;28;20290;-63
2021/12/08 06:37:22;;;;;;;26.50;13.17;;;1.70;99.90;;;;;;4157942;28;20313;-62
2021/12/08 06:39:29;;;;;;;24.27;12.13;;;1.70;99.90;;;;;;4158599;28;20709;-62
2021/12/08 06:41:38;;;;;;;30.33;15.00;;;1.70;99.90;;;;;;4157935;28;20263;-65
2021/12/08 06:43:43;;;;;;;36.23;17.47;;;1.70;99.90;;;;;;4156352;28;20306;-61
2021/12/08 06:45:48;;;;;;;33.67;15.97;;;1.80;99.90;;;;;;4156861;28;20374;-62
2021/12/08 06:47:52;;;;;;;31.50;15.13;;;1.80;99.90;;;;;;4159551;28;20320;-67
2021/12/08 06:49:56;;;;;;;23.43;13.20;;;1.80;99.90;;;;;;4154341;28;20291;-67
2021/12/08 06:52:11;;;;;;;34.00;17.00;;;1.80;99.90;;;;;;4158964;28;20255;-64
2021/12/08 06:54:29;;;;;;;31.67;15.27;;;1.80;99.90;;;;;;4156038;28;20344;-62
2021/12/08 06:56:35;;;;;;;23.97;12.80;;;1.80;99.90;;;;;;4173373;28;20273;-61
2021/12/08 06:58:39;;;;;;;30.30;14.83;;;1.80;99.90;;;;;;4170059;28;20734;-57
2021/12/08 07:01:00;;;;;;;23.93;12.13;;;1.80;99.90;;;;;;4155243;28;20294;-61
2021/12/08 07:06:04;;;;;;;20.17;10.07;;;1.90;99.90;;;;;;4155004;28;20271;-66
2021/12/08 07:08:07;;;;;;;27.13;12.17;;;1.90;99.90;;;;;;4155886;28;20271;-63
2021/12/08 07:10:23;;;;;;;21.27;11.33;;;1.90;99.90;;;;;;4141661;28;20562;-61
2021/12/08 07:12:35;;;;;;;26.50;12.83;;;1.90;99.90;;;;;;4156549;28;20283;-57
2021/12/08 07:14:38;;;;;;;25.40;12.23;;;1.90;99.90;;;;;;4156888;28;20308;-58
2021/12/08 07:16:45;;;;;;;22.80;11.47;;;1.90;99.90;;;;;;4157049;28;20304;-59
2021/12/08 07:18:56;;;;;;;24.80;12.90;;;1.90;99.90;;;;;;4158378;28;20336;-63
2021/12/08 07:21:01;;;;;;;25.00;11.87;;;1.90;99.90;;;;;;4157004;28;20286;-62
2021/12/08 07:23:03;;;;;;;25.10;12.97;;;1.90;99.90;;;;;;4157490;28;20341;-61
2021/12/08 07:25:05;;;;;;;23.60;11.40;;;1.90;99.90;;;;;;4149146;28;20282;-65
2021/12/08 07:27:18;;;;;;;21.13;10.87;;;2.00;99.90;;;;;;4158405;28;20270;-69
2021/12/08 07:29:26;;;;;;;20.17;10.57;;;2.00;99.90;;;;;;4156637;28;20275;-64
2021/12/08 07:31:35;;;;;;;19.03;9.50;;;1.90;99.90;;;;;;4157948;28;20379;-63
2021/12/08 07:33:37;;;;;;;19.83;10.20;;;1.90;99.90;;;;;;4156764;28;20305;-61
2021/12/08 07:35:47;;;;;;;19.70;10.17;;;1.90;99.90;;;;;;4157361;28;20284;-59
2021/12/08 07:37:49;;;;;;;20.05;9.73;;;1.90;99.90;;;;;;4155845;28;20737;-64
2021/12/08 07:39:59;;;;;;;18.90;10.13;;;1.90;99.90;;;;;;4157992;28;20087;-62
2021/12/08 07:42:08;;;;;;;16.33;9.40;;;1.90;99.90;;;;;;4157250;28;20263;-61
2021/12/08 07:44:12;;;;;;;18.47;10.13;;;1.90;99.90;;;;;;4173472;28;20777;-66
2021/12/08 07:46:42;;;;;;;16.40;9.50;;;1.90;99.90;;;;;;4172851;28;20266;-62
2021/12/08 07:48:48;;;;;;;18.03;9.63;;;1.80;99.90;;;;;;4166092;28;20286;-69
2021/12/08 07:50:59;;;;;;;20.43;10.13;;;1.90;99.90;;;;;;4154908;28;20731;-60
2021/12/08 07:53:01;;;;;;;16.38;9.18;;;1.90;99.90;;;;;;4157257;28;20283;-61
2021/12/08 07:55:09;;;;;;;18.10;9.67;;;2.00;99.90;;;;;;4156322;28;20083;-59
2021/12/08 07:57:16;;;;;;;18.10;9.73;;;1.90;99.90;;;;;;4156456;28;20278;-63
2021/12/08 07:59:20;;;;;;;19.20;10.90;;;2.00;99.90;;;;;;4156660;28;20325;-59
2021/12/08 08:01:29;;;;;;;19.57;10.53;;;2.00;99.90;;;;;;4157359;28;20282;-65
2021/12/08 08:03:32;;;;;;;18.87;9.77;;;2.00;99.90;;;;;;4152589;28;20291;-58
2021/12/08 08:05:35;;;;;;;19.63;10.30;;;2.00;99.90;;;;;;4139834;28;20703;-68
2021/12/08 08:07:37;;;;;;;19.47;10.87;;;2.00;99.90;;;;;;4143905;28;20357;-64
2021/12/08 08:09:42;;;;;;;23.07;11.37;;;2.00;99.90;;;;;;4158108;28;20332;-70
2021/12/08 08:11:54;;;;;;;19.93;10.77;;;2.10;99.90;;;;;;4152404;28;20267;-60
2021/12/08 08:13:57;;;;;;;21.13;10.17;;;2.10;99.90;;;;;;4158009;28;22212;-60
2021/12/08 08:16:05;;;;;;;23.83;11.90;;;2.20;99.90;;;;;;4155818;28;20312;-62
2021/12/08 08:18:09;;;;;;;22.97;12.07;;;2.20;99.90;;;;;;4157526;28;20286;-62
2021/12/08 08:20:16;;;;;;;21.27;11.50;;;2.30;99.90;;;;;;4156131;28;20352;-63
2021/12/08 08:22:24;;;;;;;25.03;13.20;;;2.40;99.90;;;;;;4157822;28;20266;-63
2021/12/08 08:24:26;;;;;;;23.27;11.80;;;2.40;99.90;;;;;;4155930;28;20314;-70
2021/12/08 08:26:28;;;;;;;27.87;12.83;;;2.40;99.90;;;;;;4172192;28;20293;-62
2021/12/08 08:28:30;;;;;;;22.43;12.83;;;2.40;99.90;;;;;;4172550;28;20258;-67
2021/12/08 08:30:40;;;;;;;26.80;12.30;;;2.50;99.90;;;;;;4158502;28;20286;-60
2021/12/08 08:32:41;;;;;;;23.57;12.40;;;2.50;99.90;;;;;;4156690;28;20301;-57
2021/12/08 08:34:45;;;;;;;22.27;12.63;;;2.50;99.90;;;;;;4159206;28;20316;-63
2021/12/08 08:36:48;;;;;;;22.87;12.53;;;2.50;99.90;;;;;;4161380;28;20770;-65
2021/12/08 08:38:56;;;;;;;21.10;11.97;;;2.50;99.90;;;;;;4156924;28;20832;-60
2021/12/08 08:41:03;;;;;;;27.00;12.53;;;2.50;99.90;;;;;;4157204;28;20760;-68
2021/12/08 08:43:05;;;;;;;23.67;11.57;;;2.50;99.90;;;;;;4156552;28;20904;-60
2021/12/08 08:45:06;;;;;;;19.43;11.13;;;2.50;99.90;;;;;;4157118;28;20298;-64
2021/12/08 08:47:13;;;;;;;18.53;10.47;;;2.50;99.90;;;;;;4156108;28;20328;-62
2021/12/08 08:49:18;;;;;;;21.40;10.43;;;2.50;99.90;;;;;;4157041;28;20279;-63
2021/12/08 08:51:43;;;;;;;18.40;10.17;;;2.50;99.90;;;;;;4154806;28;20385;-62
2021/12/08 08:53:47;;;;;;;17.70;9.53;;;2.50;99.90;;;;;;4151051;28;20287;-65
2021/12/08 08:55:53;;;;;;;25.73;13.27;;;2.50;99.90;;;;;;4156298;28;20275;-62
2021/12/08 08:57:56;;;;;;;29.10;15.40;;;2.50;99.90;;;;;;4157536;28;20328;-65
2021/12/08 09:00:03;;;;;;;28.23;14.00;;;2.50;99.90;;;;;;4155776;28;20313;-64
2021/12/08 09:02:08;;;;;;;36.23;18.00;;;2.50;99.90;;;;;;4156865;28;20375;-69
2021/12/08 09:04:20;;;;;;;59.57;28.33;;;2.60;99.90;;;;;;4155473;28;20306;-63
2021/12/08 09:06:31;;;;;;;60.47;29.67;;;2.70;99.90;;;;;;4156863;28;20271;-63
2021/12/08 09:08:34;;;;;;;55.77;27.27;;;2.70;99.90;;;;;;4156262;28;20270;-63
2021/12/08 09:10:47;;;;;;;103.40;56.73;;;2.90;99.90;;;;;;4156173;28;20279;-62
2021/12/08 09:12:58;;;;;;;28.57;17.53;;;3.00;99.90;;;;;;4150905;28;20271;-61
2021/12/08 09:15:15;;;;;;;17.43;10.87;;;3.00;99.90;;;;;;4153486;28;20274;-64
2021/12/08 09:17:41;;;;;;;20.77;10.47;;;3.00;99.90;;;;;;4147176;28;20271;-61
2021/12/08 09:19:55;;;;;;;19.60;10.73;;;3.00;99.90;;;;;;4154201;28;20678;-62
2021/12/08 09:22:11;;;;;;;17.97;10.33;;;3.00;99.90;;;;;;4152839;28;20333;-64
2021/12/08 09:24:37;;;;;;;18.23;10.47;;;2.90;99.90;;;;;;4153477;28;20368;-62
2021/12/08 09:26:44;;;;;;;15.70;9.70;;;2.90;99.90;;;;;;4156273;28;21008;-63
2021/12/08 09:28:56;;;;;;;19.97;10.57;;;2.90;99.90;;;;;;4155910;28;20255;-66
2021/12/08 09:31:06;;;;;;;19.40;10.53;;;2.90;99.90;;;;;;4157787;28;21118;-62
2021/12/08 09:33:18;;;;;;;19.67;10.27;;;2.90;99.90;;;;;;4175774;28;20335;-63
2021/12/08 09:35:24;;;;;;;22.90;11.20;;;2.90;99.90;;;;;;4176090;28;21016;-61
2021/12/08 09:37:34;;;;;;;17.17;9.53;;;2.90;99.90;;;;;;4175849;28;20266;-67
2021/12/08 09:39:48;;;;;;;19.52;11.15;;;3.00;99.90;;;;;;4175635;28;20274;-63
2021/12/08 09:41:55;;;;;;;17.07;10.40;;;3.00;99.90;;;;;;4175288;28;20106;-61
2021/12/08 09:44:02;;;;;;;18.77;11.83;;;3.00;99.90;;;;;;4175786;28;20782;-61
2021/12/08 09:46:10;;;;;;;16.87;8.60;;;3.00;99.90;;;;;;4152901;28;21375;-64
2021/12/08 09:48:11;;;;;;;13.83;8.60;;;2.90;99.90;;;;;;4141682;28;20310;-58
2021/12/08 09:50:15;;;;;;;14.60;8.93;;;2.90;99.90;;;;;;4142359;28;20272;-60
2021/12/08 09:52:19;;;;;;;18.53;9.60;;;2.90;99.90;;;;;;4142857;28;20271;-60
2021/12/08 09:54:21;;;;;;;15.33;9.40;;;2.90;99.90;;;;;;4143474;28;20247;-63
2021/12/08 09:56:24;;;;;;;15.20;8.70;;;2.90;99.90;;;;;;4142568;28;20271;-62
2021/12/08 09:58:25;;;;;;;16.43;9.17;;;2.90;99.90;;;;;;4150221;28;20373;-66
2021/12/08 10:00:31;;;;;;;15.63;10.33;;;2.90;99.90;;;;;;4156540;28;20298;-63
2021/12/08 10:02:34;;;;;;;16.73;10.27;;;3.00;99.90;;;;;;4159451;28;20766;-60
2021/12/08 10:04:35;;;;;;;18.13;9.63;;;3.00;99.90;;;;;;4157522;28;20337;-62
2021/12/08 10:06:39;;;;;;;16.07;9.23;;;3.00;99.90;;;;;;4159842;28;20541;-66
2021/12/08 10:08:43;;;;;;;17.37;9.57;;;3.00;99.90;;;;;;4151732;28;20755;-58
2021/12/08 10:10:45;;;;;;;18.37;9.80;;;3.00;99.90;;;;;;4158565;28;20278;-60
2021/12/08 10:12:48;;;;;;;17.90;10.07;;;3.00;99.90;;;;;;4157907;28;20283;-61
2021/12/08 10:14:50;;;;;;;16.23;9.40;;;3.10;99.90;;;;;;4158599;28;20278;-61
2021/12/08 10:16:54;;;;;;;18.43;11.50;;;3.10;99.90;;;;;;4151517;28;20523;-61
2021/12/08 10:18:56;;;;;;;19.70;10.17;;;3.10;99.90;;;;;;4158254;28;20321;-61
2021/12/08 10:20:57;;;;;;;15.13;9.47;;;3.10;99.90;;;;;;4153804;28;20275;-59
2021/12/08 10:23:11;;;;;;;13.23;8.73;;;3.20;99.90;;;;;;4158426;28;20333;-62
2021/12/08 10:25:21;;;;;;;15.10;9.40;;;3.30;99.90;;;;;;4166412;28;20817;-60
2021/12/08 10:27:22;;;;;;;16.23;10.18;;;3.30;99.90;;;;;;4175517;28;20274;-61
2021/12/08 10:29:26;;;;;;;17.70;9.80;;;3.30;99.90;;;;;;4174644;28;20099;-59
2021/12/08 10:31:31;;;;;;;18.30;9.97;;;3.30;99.90;;;;;;4175051;28;20242;-62
2021/12/08 10:37:06;;;;;;;17.03;9.93;;;3.30;99.90;;;;;;4155323;28;20308;-61
2021/12/08 10:38:42;;;;;;;17.83;10.10;;;3.30;99.90;;;;;;4162313;28;20604;-62
2021/12/08 10:40:58;;;;;;;16.37;9.87;;;3.30;99.90;;;;;;4157242;28;20332;-62
2021/12/08 10:43:15;;;;;;;18.63;10.93;;;3.40;99.90;;;;;;4148696;28;20278;-62
2021/12/08 10:45:22;;;;;;;15.73;8.80;;;3.30;99.90;;;;;;4154082;28;20766;-60
2021/12/08 10:47:36;;;;;;;14.17;8.77;;;3.30;99.90;;;;;;4155287;28;20270;-61
2021/12/08 10:54:30;;;;;;;18.70;10.10;;;3.40;99.90;;;;;;4158901;28;20267;-62
2021/12/08 10:56:37;;;;;;;21.13;9.30;;;3.40;99.90;;;;;;4157731;28;20270;-63
2021/12/08 10:58:53;;;;;;;15.93;9.53;;;3.40;99.90;;;;;;4158908;28;20333;-65
2021/12/08 11:00:56;;;;;;;15.47;9.13;;;3.40;99.90;;;;;;4158055;28;20655;-62
2021/12/08 11:03:00;;;;;;;18.57;9.63;;;3.40;99.90;;;;;;4159150;28;20343;-63
2021/12/08 11:05:01;;;;;;;18.63;10.57;;;3.50;99.90;;;;;;4158002;28;20946;-63
2021/12/08 11:07:08;;;;;;;16.13;8.80;;;3.40;99.90;;;;;;4159050;28;20741;-63
2021/12/08 11:09:15;;;;;;;16.67;9.40;;;3.50;99.90;;;;;;4158147;28;20283;-62
2021/12/08 11:11:23;;;;;;;20.33;10.63;;;3.60;99.90;;;;;;4159323;28;20270;-62
2021/12/08 11:13:28;;;;;;;20.77;10.40;;;3.60;99.90;;;;;;4157563;28;20950;-62
2021/12/08 11:15:32;;;;;;;19.00;10.80;;;3.70;99.90;;;;;;4158664;28;20352;-61
2021/12/08 11:17:35;;;;;;;18.83;10.20;;;3.60;99.90;;;;;;4157181;28;20325;-62
2021/12/08 11:19:37;;;;;;;18.13;10.87;;;3.60;99.90;;;;;;4158111;28;20263;-63
2021/12/08 11:21:46;;;;;;;17.23;9.97;;;3.50;99.90;;;;;;4157350;28;20255;-63
2021/12/08 11:23:50;;;;;;;20.83;11.33;;;3.50;99.90;;;;;;4158330;28;20324;-63
2021/12/08 11:25:52;;;;;;;19.30;10.97;;;3.50;99.90;;;;;;4157407;28;20318;-64
2021/12/08 11:27:53;;;;;;;16.90;11.03;;;3.50;99.90;;;;;;4156605;28;20275;-63
2021/12/08 11:29:56;;;;;;;16.20;10.03;;;3.50;99.90;;;;;;4157947;28;20271;-63
2021/12/08 11:31:59;;;;;;;19.80;9.70;;;3.40;99.90;;;;;;4157438;28;20266;-63
2021/12/08 11:34:04;;;;;;;16.93;8.83;;;3.30;99.90;;;;;;4157454;28;20274;-63
2021/12/08 11:36:34;;;;;;;15.07;8.87;;;3.30;99.90;;;;;;4157017;28;20294;-63
2021/12/08 11:38:35;;;;;;;16.80;9.43;;;3.30;99.90;;;;;;4156274;28;20283;-63
2021/12/08 11:40:37;;;;;;;15.00;8.03;;;3.30;99.90;;;;;;4154695;28;20308;-62
2021/12/08 11:42:38;;;;;;;11.87;6.83;;;3.30;99.90;;;;;;4154069;28;20271;-63